Time;durP1;ratioP1;P1;durP2;ratioP2;P2;SDS_P1;SDS_P2;PMS_P1;PMS_P2;Temp;Humidity;BMP_temperature;BMP_pressure;BME280_temperature;BME280_humidity;BME280_pressure;Samples;Min_cycle;Max_cycle;Signal;HPM_P1;HPM_P2
2021/05/25 00:00:21;;;;;;;13.55;8.10;;;538.20;2406.40;;;;;;5054445;28;20033;-80
2021/05/25 00:02:48;;;;;;;11.60;8.02;;;538.00;2406.40;;;;;;5054528;28;20028;-82
2021/05/25 00:05:20;;;;;;;13.63;7.95;;;512.90;2380.80;;;;;;5053349;28;20372;-81
2021/05/25 00:07:46;;;;;;;11.70;7.95;;;538.00;2406.40;;;;;;5053337;28;20021;-81
2021/05/25 00:10:13;;;;;;;18.05;8.25;;;538.00;2406.40;;;;;;5053241;28;20055;-81
2021/05/25 00:12:39;;;;;;;14.88;9.05;;;537.90;2406.40;;;;;;5053330;28;20028;-82
2021/05/25 00:15:11;;;;;;;13.32;8.02;;;537.90;2406.40;;;;;;5053122;28;20017;-81
2021/05/25 00:17:37;;;;;;;;;;;537.90;2406.40;;;;;;5053505;28;20052;-82
2021/05/25 00:20:06;;;;;;;14.20;9.38;;;537.90;2406.40;;;;;;5053092;28;19964;-78
2021/05/25 00:22:32;;;;;;;14.57;7.75;;;537.70;2406.40;;;;;;5069591;28;20051;-79
2021/05/25 00:24:58;;;;;;;18.70;9.63;;;537.90;2406.40;;;;;;5052857;28;20108;-80
2021/05/25 00:27:24;;;;;;;16.25;9.15;;;538.00;2406.40;;;;;;5053950;28;20025;-78
2021/05/25 00:29:49;;;;;;;10.32;8.02;;;538.00;2406.40;;;;;;5052706;28;20345;-79
2021/05/25 00:32:15;;;;;;;13.00;8.68;;;538.00;2406.40;;;;;;5053942;28;20025;-79
2021/05/25 00:34:41;;;;;;;14.35;8.73;;;538.10;2406.40;;;;;;5052520;28;20028;-78
2021/05/25 00:37:07;;;;;;;12.07;8.35;;;538.00;2406.40;;;;;;5052615;28;20021;-80
2021/05/25 00:39:32;;;;;;;11.75;8.55;;;537.90;2406.40;;;;;;5052156;28;20044;-80
2021/05/25 00:41:58;;;;;;;12.63;8.57;;;537.90;2406.40;;;;;;5052080;28;20036;-79
2021/05/25 00:44:24;;;;;;;11.35;8.60;;;538.00;2406.40;;;;;;5052093;28;20029;-77
2021/05/25 00:46:52;;;;;;;13.00;8.32;;;537.90;2406.40;;;;;;5053776;28;20075;-78
2021/05/25 00:49:18;;;;;;;19.17;8.50;;;537.80;2406.40;;;;;;5053247;28;20017;-80
2021/05/25 00:51:44;;;;;;;12.60;8.63;;;537.70;2406.40;;;;;;5052410;28;20035;-79
2021/05/25 00:54:10;;;;;;;14.60;8.63;;;537.60;2406.40;;;;;;5052409;28;20433;-78
2021/05/25 00:56:36;;;;;;;11.45;8.07;;;537.60;2406.40;;;;;;5052212;28;20502;-78
2021/05/25 00:59:02;;;;;;;9.80;8.13;;;537.70;2406.40;;;;;;5053568;28;20025;-78
2021/05/25 01:01:28;;;;;;;11.35;8.27;;;537.70;2406.40;;;;;;5052389;28;20036;-79
2021/05/25 01:03:55;;;;;;;10.95;8.32;;;537.80;2406.40;;;;;;5052140;28;20025;-78
2021/05/25 01:06:21;;;;;;;11.40;8.80;;;537.90;2406.40;;;;;;5052290;28;20021;-78
2021/05/25 01:08:47;;;;;;;20.92;9.77;;;537.70;2406.40;;;;;;5052313;28;20025;-80
2021/05/25 01:11:15;;;;;;;10.93;9.05;;;537.70;2406.40;;;;;;5052123;28;20071;-79
2021/05/25 01:13:47;;;;;;;11.50;8.43;;;537.60;2406.40;;;;;;5052319;28;20028;-79
2021/05/25 01:16:14;;;;;;;13.48;9.32;;;537.70;2406.40;;;;;;5052219;28;20346;-78
2021/05/25 01:18:40;;;;;;;12.30;9.60;;;537.60;2406.40;;;;;;5053496;28;20064;-79
2021/05/25 01:21:08;;;;;;;16.38;9.65;;;512.90;2380.80;;;;;;5051929;28;20060;-79
2021/05/25 01:23:35;;;;;;;12.90;9.52;;;512.90;2380.80;;;;;;5051998;28;20021;-78
2021/05/25 01:26:02;;;;;;;11.82;8.95;;;512.90;2380.80;;;;;;5052272;28;20032;-78
2021/05/25 01:28:28;;;;;;;15.13;9.68;;;512.90;2380.80;;;;;;5051992;28;20028;-79
2021/05/25 01:30:55;;;;;;;11.52;9.15;;;512.70;2380.80;;;;;;5068540;28;20025;-77
2021/05/25 01:33:25;;;;;;;13.65;10.00;;;512.90;2380.80;;;;;;5052080;28;20437;-80
2021/05/25 01:35:51;;;;;;;16.05;10.82;;;512.90;2380.80;;;;;;5052083;28;20400;-79
2021/05/25 01:38:18;;;;;;;14.15;9.48;;;512.90;2380.80;;;;;;5051702;28;20049;-78
2021/05/25 01:40:45;;;;;;;14.90;9.65;;;512.70;2380.80;;;;;;5051845;28;20029;-78
2021/05/25 01:43:13;;;;;;;11.57;9.68;;;512.70;2380.80;;;;;;5053394;28;20021;-78
2021/05/25 01:45:39;;;;;;;21.35;9.80;;;512.60;2380.80;;;;;;5051708;28;20024;-79
2021/05/25 01:48:07;;;;;;;11.57;9.18;;;512.70;2380.80;;;;;;5068573;28;20052;-80
2021/05/25 01:50:36;;;;;;;14.70;9.70;;;512.70;2380.80;;;;;;5051960;28;20464;-80
2021/05/25 01:53:29;;;;;;;12.63;9.95;;;512.70;2380.80;;;;;;5053074;28;20075;-80
2021/05/25 01:55:57;;;;;;;11.95;8.85;;;512.70;2380.80;;;;;;5052489;28;20116;-78
2021/05/25 01:58:33;;;;;;;14.48;9.07;;;512.90;2380.80;;;;;;5072176;28;20017;-77
2021/05/25 02:01:05;;;;;;;13.07;10.15;;;512.80;2380.80;;;;;;5056954;28;20025;-80
2021/05/25 02:03:31;;;;;;;11.73;9.52;;;512.90;2380.80;;;;;;5055609;28;20074;-79
2021/05/25 02:05:57;;;;;;;11.05;9.40;;;512.90;2380.80;;;;;;5056457;28;20021;-80
2021/05/25 02:08:24;;;;;;;16.98;10.90;;;512.90;2380.80;;;;;;5055482;28;20384;-77
2021/05/25 02:10:52;;;;;;;14.23;10.02;;;512.90;2380.80;;;;;;5056699;28;20145;-78
2021/05/25 02:13:26;;;;;;;13.65;9.70;;;512.70;2380.80;;;;;;5055197;28;20021;-80
2021/05/25 02:15:56;;;;;;;12.90;9.82;;;512.70;2380.80;;;;;;5055422;28;20146;-78
2021/05/25 02:18:27;;;;;;;13.77;10.02;;;512.60;2380.80;;;;;;5055262;28;20032;-79
2021/05/25 02:20:56;;;;;;;13.43;10.45;;;512.50;2380.80;;;;;;5054853;28;20064;-77
2021/05/25 02:23:22;;;;;;;16.58;10.70;;;512.60;2380.80;;;;;;5071671;28;20032;-79
2021/05/25 02:25:49;;;;;;;13.80;9.85;;;512.60;2380.80;;;;;;5055276;28;20452;-79
2021/05/25 02:28:15;;;;;;;13.57;9.82;;;512.60;2380.80;;;;;;5054862;28;20028;-78
2021/05/25 02:30:42;;;;;;;13.63;10.35;;;512.40;2380.80;;;;;;5056621;28;20033;-79
2021/05/25 02:33:11;;;;;;;15.18;10.30;;;512.40;2380.80;;;;;;5054878;28;20028;-78
2021/05/25 02:35:39;;;;;;;14.77;8.25;;;512.50;2380.80;;;;;;5054986;28;20467;-78
2021/05/25 02:38:07;;;;;;;13.25;8.73;;;512.50;2380.80;;;;;;5071243;28;20423;-79
2021/05/25 02:40:34;;;;;;;16.33;9.02;;;512.60;2380.80;;;;;;5054623;28;20029;-79
2021/05/25 02:43:00;;;;;;;13.27;7.95;;;512.70;2380.80;;;;;;5054858;28;20376;-79
2021/05/25 02:45:26;;;;;;;12.18;7.78;;;512.70;2380.80;;;;;;5056021;28;20017;-78
2021/05/25 02:47:52;;;;;;;8.55;7.47;;;512.80;2380.80;;;;;;5054563;28;20027;-79
2021/05/25 02:50:19;;;;;;;11.40;7.32;;;512.90;2380.80;;;;;;5054751;28;20403;-79
2021/05/25 02:52:48;;;;;;;12.10;7.63;;;512.90;2380.80;;;;;;5054684;28;20033;-79
2021/05/25 02:55:22;;;;;;;12.50;6.93;;;512.90;2380.80;;;;;;5055732;28;20108;-79
2021/05/25 02:57:48;;;;;;;13.88;7.70;;;537.60;2406.40;;;;;;5055897;28;20024;-78
2021/05/25 03:00:17;;;;;;;9.43;7.47;;;537.60;2406.40;;;;;;5055762;28;20036;-78
2021/05/25 03:02:43;;;;;;;12.48;7.55;;;537.60;2406.40;;;;;;5054389;28;20027;-79
2021/05/25 03:05:10;;;;;;;12.10;7.93;;;537.60;2406.40;;;;;;5054317;28;20025;-78
2021/05/25 03:07:37;;;;;;;10.27;8.02;;;512.90;2380.80;;;;;;5054056;28;20021;-78
2021/05/25 03:10:11;;;;;;;14.55;8.45;;;512.90;2380.80;;;;;;5070938;28;20025;-78
2021/05/25 03:12:37;;;;;;;11.30;8.00;;;512.90;2380.80;;;;;;5055969;28;20028;-77
2021/05/25 03:15:13;;;;;;;12.32;8.15;;;512.80;2380.80;;;;;;5055455;28;20025;-77
2021/05/25 03:17:39;;;;;;;10.98;7.95;;;512.90;2380.80;;;;;;5053875;28;20027;-77
2021/05/25 03:20:07;;;;;;;12.27;7.60;;;512.90;2380.80;;;;;;5053919;28;20025;-80
2021/05/25 03:22:33;;;;;;;10.68;7.30;;;512.90;2380.80;;;;;;5054011;28;20028;-79
2021/05/25 03:24:59;;;;;;;13.85;7.43;;;512.90;2380.80;;;;;;5053986;28;20203;-79
2021/05/25 03:27:25;;;;;;;11.10;7.95;;;537.60;2406.40;;;;;;5055046;28;20024;-80
2021/05/25 03:29:52;;;;;;;14.85;8.63;;;537.60;2406.40;;;;;;5053747;28;20021;-77
2021/05/25 03:32:18;;;;;;;13.43;8.90;;;537.60;2406.40;;;;;;5070082;28;20082;-79
2021/05/25 03:34:44;;;;;;;12.93;7.78;;;512.90;2380.80;;;;;;5053214;28;20017;-79
2021/05/25 03:37:10;;;;;;;15.00;8.35;;;537.60;2406.40;;;;;;5054738;28;20029;-78
2021/05/25 03:39:36;;;;;;;11.50;7.65;;;537.70;2406.40;;;;;;5054455;28;20052;-78
2021/05/25 03:42:02;;;;;;;12.00;7.88;;;537.70;2406.40;;;;;;5053117;28;20446;-79
2021/05/25 03:44:28;;;;;;;12.43;7.70;;;537.70;2406.40;;;;;;5053443;28;20119;-79
2021/05/25 03:46:54;;;;;;;13.82;8.88;;;537.70;2406.40;;;;;;5049622;28;20045;-79
2021/05/25 03:49:20;;;;;;;18.50;8.88;;;537.70;2406.40;;;;;;5033725;28;20033;-78
2021/05/25 03:51:46;;;;;;;14.43;9.02;;;537.70;2406.40;;;;;;5033399;28;20055;-79
2021/05/25 03:54:20;;;;;;;13.90;8.88;;;537.70;2406.40;;;;;;5033536;28;20029;-78
2021/05/25 03:56:56;;;;;;;15.57;8.57;;;537.60;2406.40;;;;;;5033479;28;20033;-78
2021/05/25 03:59:22;;;;;;;17.45;8.35;;;537.60;2406.40;;;;;;5033224;28;20511;-79
2021/05/25 04:01:47;;;;;;;12.52;9.40;;;537.60;2406.40;;;;;;5033229;28;20037;-78
2021/05/25 04:04:14;;;;;;;14.90;9.02;;;537.60;2406.40;;;;;;5033498;28;20033;-79
2021/05/25 04:06:41;;;;;;;17.35;9.15;;;512.90;2380.80;;;;;;5053713;28;20030;-78
2021/05/25 04:09:08;;;;;;;10.80;8.82;;;512.90;2380.80;;;;;;5038447;28;20457;-78
2021/05/25 04:11:34;;;;;;;12.77;9.23;;;537.60;2406.40;;;;;;5039480;28;20025;-77
2021/05/25 04:14:01;;;;;;;15.63;8.13;;;512.90;2380.80;;;;;;5038509;28;20025;-78
2021/05/25 04:16:26;;;;;;;11.82;7.82;;;537.60;2406.40;;;;;;5039478;28;20081;-77
2021/05/25 04:18:52;;;;;;;11.15;8.45;;;537.60;2406.40;;;;;;5037339;28;20056;-78
2021/05/25 04:21:18;;;;;;;15.85;9.00;;;537.60;2406.40;;;;;;5038153;28;20037;-78
2021/05/25 04:23:44;;;;;;;16.23;9.40;;;537.60;2406.40;;;;;;5037581;28;20044;-79
2021/05/25 04:26:10;;;;;;;13.48;9.00;;;537.60;2406.40;;;;;;5037099;28;20524;-78
2021/05/25 04:28:37;;;;;;;16.17;8.18;;;537.60;2406.40;;;;;;5037252;28;20402;-78
2021/05/25 04:31:03;;;;;;;10.90;7.82;;;537.70;2406.40;;;;;;5038844;28;20113;-77
2021/05/25 04:33:29;;;;;;;15.65;8.32;;;537.80;2406.40;;;;;;5034241;28;20021;-79
2021/05/25 04:35:55;;;;;;;14.63;7.07;;;537.90;2406.40;;;;;;5034641;28;20103;-78
2021/05/25 04:38:21;;;;;;;9.57;6.90;;;537.80;2406.40;;;;;;5034055;28;20397;-78
2021/05/25 04:40:47;;;;;;;15.30;7.40;;;537.90;2406.40;;;;;;5032828;28;20037;-79
2021/05/25 04:43:13;;;;;;;12.63;7.00;;;538.00;2406.40;;;;;;5032953;28;20022;-79
2021/05/25 04:45:41;;;;;;;11.07;7.00;;;538.00;2406.40;;;;;;5033994;28;20029;-79
2021/05/25 04:48:08;;;;;;;12.82;7.15;;;538.10;2406.40;;;;;;5032866;28;20025;-80
2021/05/25 04:50:34;;;;;;;15.73;7.63;;;538.10;2406.40;;;;;;5032680;28;20029;-78
2021/05/25 04:53:00;;;;;;;22.85;9.00;;;538.30;2406.40;;;;;;5032808;28;20025;-77
2021/05/25 04:55:26;;;;;;;19.58;11.85;;;538.30;2406.40;;;;;;5034433;28;20365;-77
2021/05/25 04:57:53;;;;;;;23.95;14.32;;;538.40;2406.40;;;;;;5033853;28;20472;-78
2021/05/25 05:00:25;;;;;;;27.23;12.85;;;538.40;2406.40;;;;;;5032368;28;20055;-77
2021/05/25 05:02:51;;;;;;;24.42;13.15;;;538.40;2406.40;;;;;;5033830;28;20018;-77
2021/05/25 05:05:17;;;;;;;17.30;10.20;;;538.50;2406.40;;;;;;5032345;28;20021;-77
2021/05/25 05:07:43;;;;;;;16.90;9.32;;;538.50;2406.40;;;;;;5032469;28;20018;-82
2021/05/25 05:10:10;;;;;;;13.18;8.73;;;538.50;2406.40;;;;;;5032495;28;20021;-77
2021/05/25 05:12:36;;;;;;;17.90;7.75;;;538.50;2406.40;;;;;;5033827;28;20037;-77
2021/05/25 05:15:04;;;;;;;37.80;27.85;;;538.50;2406.40;;;;;;5032163;28;20053;-77
2021/05/25 05:17:30;;;;;;;19.60;11.55;;;538.50;2406.40;;;;;;5039623;28;20061;-79
2021/05/25 05:19:56;;;;;;;21.02;11.30;;;538.50;2406.40;;;;;;5068952;28;20108;-79
2021/05/25 05:22:22;;;;;;;24.10;12.80;;;563.20;2432.00;;;;;;5068860;28;20040;-78
2021/05/25 05:24:48;;;;;;;21.33;10.90;;;563.40;2432.00;;;;;;5069066;28;20049;-78
2021/05/25 05:27:14;;;;;;;14.48;9.80;;;563.20;2432.00;;;;;;5053399;28;20024;-79
2021/05/25 05:29:40;;;;;;;16.73;9.05;;;538.50;2406.40;;;;;;5071041;28;20028;-78
2021/05/25 05:32:07;;;;;;;14.30;9.02;;;538.50;2406.40;;;;;;5072880;28;20479;-79
2021/05/25 05:34:33;;;;;;;14.27;9.02;;;538.50;2406.40;;;;;;5072910;28;20068;-78
2021/05/25 05:36:59;;;;;;;17.05;8.25;;;563.20;2432.00;;;;;;5072576;28;20024;-78
2021/05/25 05:39:25;;;;;;;16.80;8.63;;;563.20;2432.00;;;;;;5057426;28;20041;-78
2021/05/25 05:41:50;;;;;;;11.70;7.40;;;563.40;2432.00;;;;;;5072052;28;20439;-79
2021/05/25 05:44:16;;;;;;;16.23;8.80;;;563.40;2432.00;;;;;;5057101;28;20071;-78
2021/05/25 05:46:42;;;;;;;17.70;9.38;;;563.40;2432.00;;;;;;5072532;28;20021;-79
2021/05/25 05:49:08;;;;;;;14.18;8.57;;;563.50;2432.00;;;;;;5072009;28;20029;-78
2021/05/25 05:51:34;;;;;;;13.63;7.70;;;563.40;2432.00;;;;;;5072426;28;20124;-79
2021/05/25 05:54:00;;;;;;;11.38;8.48;;;563.50;2432.00;;;;;;5072391;28;20017;-79
2021/05/25 05:56:26;;;;;;;13.43;8.55;;;563.50;2432.00;;;;;;5072817;28;20021;-83
2021/05/25 05:58:52;;;;;;;23.00;14.05;;;563.60;2432.00;;;;;;5072416;28;20083;-80
2021/05/25 06:01:19;;;;;;;25.23;15.77;;;563.50;2432.00;;;;;;5072445;28;20110;-83
2021/05/25 06:03:45;;;;;;;23.92;16.27;;;563.80;2432.00;;;;;;5072536;28;20025;-81
2021/05/25 06:06:12;;;;;;;16.52;11.48;;;563.90;2432.00;;;;;;5055602;28;20060;-79
2021/05/25 06:08:39;;;;;;;19.15;11.25;;;564.10;2432.00;;;;;;5072467;28;20021;-82
2021/05/25 06:11:05;;;;;;;15.93;10.15;;;588.80;2432.00;;;;;;5072061;28;20024;-80
2021/05/25 06:13:31;;;;;;;21.45;11.27;;;588.90;2432.00;;;;;;5072170;28;20059;-80
2021/05/25 06:16:07;;;;;;;16.02;8.57;;;588.90;2432.00;;;;;;5072477;28;20071;-80
2021/05/25 06:18:35;;;;;;;22.98;12.30;;;588.90;2432.00;;;;;;5072304;28;20359;-82
2021/05/25 06:21:02;;;;;;;12.85;7.88;;;588.90;2432.00;;;;;;5071824;28;20032;-84
2021/05/25 06:23:29;;;;;;;14.40;7.50;;;589.10;2432.00;;;;;;5071732;28;20132;-82
2021/05/25 06:25:56;;;;;;;10.65;6.55;;;589.30;2432.00;;;;;;5055881;28;20100;-82
2021/05/25 06:28:22;;;;;;;11.07;7.00;;;589.40;2432.00;;;;;;5071993;28;20048;-81
2021/05/25 06:30:47;;;;;;;10.88;6.55;;;589.50;2432.00;;;;;;5072055;28;20067;-81
2021/05/25 06:33:13;;;;;;;10.70;6.15;;;589.60;2432.00;;;;;;5071794;28;20421;-81
2021/05/25 06:35:39;;;;;;;9.55;6.22;;;589.70;2432.00;;;;;;5056369;28;20017;-82
2021/05/25 06:38:07;;;;;;;9.88;6.32;;;614.50;2432.00;;;;;;5071602;28;20051;-82
2021/05/25 06:40:32;;;;;;;13.38;6.47;;;614.50;2432.00;;;;;;5070966;28;20052;-82
2021/05/25 06:42:58;;;;;;;13.75;5.95;;;614.60;2432.00;;;;;;5071841;28;20029;-82
2021/05/25 06:45:25;;;;;;;15.48;7.25;;;614.70;2432.00;;;;;;5071571;28;20024;-82
2021/05/25 06:47:51;;;;;;;27.50;6.72;;;614.80;2432.00;;;;;;5071756;28;20077;-80
2021/05/25 06:50:17;;;;;;;11.73;6.45;;;614.90;2432.00;;;;;;5071287;28;20484;-80
2021/05/25 06:52:43;;;;;;;9.45;5.15;;;615.00;2432.00;;;;;;5055690;28;20025;-81
2021/05/25 06:55:11;;;;;;;16.50;6.45;;;615.10;2432.00;;;;;;5056021;28;20025;-81
2021/05/25 06:57:37;;;;;;;12.27;7.03;;;615.20;2432.00;;;;;;5054372;28;20066;-81
2021/05/25 07:00:08;;;;;;;14.88;6.60;;;640.00;2432.00;;;;;;5071826;28;20017;-81
2021/05/25 07:02:34;;;;;;;12.30;6.10;;;640.10;2432.00;;;;;;5071209;28;20112;-82
2021/05/25 07:05:01;;;;;;;13.65;5.13;;;640.30;2432.00;;;;;;5070760;28;20047;-80
2021/05/25 07:07:27;;;;;;;11.63;5.55;;;640.20;2432.00;;;;;;5055381;28;20017;-80
2021/05/25 07:09:52;;;;;;;13.63;5.72;;;640.10;2432.00;;;;;;5070295;28;20116;-81
2021/05/25 07:12:18;;;;;;;11.10;4.72;;;640.30;2432.00;;;;;;5058238;28;20016;-83
2021/05/25 07:14:45;;;;;;;12.43;4.72;;;640.50;2432.00;;;;;;5061623;28;20079;-82
2021/05/25 07:17:11;;;;;;;13.55;5.50;;;640.80;2432.00;;;;;;5037081;28;20075;-84
2021/05/25 07:19:38;;;;;;;15.55;4.65;;;665.60;2432.00;;;;;;5053925;28;20025;-78
2021/05/25 07:22:04;;;;;;;11.82;4.38;;;665.60;2432.00;;;;;;5054727;28;20460;-81
2021/05/25 07:24:30;;;;;;;10.73;6.10;;;665.80;2406.40;;;;;;5054679;28;20465;-80
2021/05/25 07:26:56;;;;;;;10.23;5.03;;;666.00;2355.20;;;;;;5070464;28;20032;-79
2021/05/25 07:29:22;;;;;;;14.77;5.00;;;666.20;2304.00;;;;;;5054938;28;20099;-81
2021/05/25 07:31:48;;;;;;;11.73;5.00;;;666.20;2252.80;;;;;;5071047;28;20025;-81
2021/05/25 07:34:14;;;;;;;11.52;4.72;;;666.30;2227.20;;;;;;5070404;28;20029;-81
2021/05/25 07:36:39;;;;;;;13.13;6.53;;;666.50;2227.20;;;;;;5070578;28;20028;-81
2021/05/25 07:39:06;;;;;;;10.32;4.45;;;691.20;2227.20;;;;;;5070167;28;20049;-80
2021/05/25 07:41:33;;;;;;;15.32;5.30;;;691.30;2201.60;;;;;;5070312;28;20162;-80
2021/05/25 07:43:58;;;;;;;9.98;5.47;;;691.40;2176.00;;;;;;5070310;28;20024;-80
2021/05/25 07:46:25;;;;;;;10.68;4.18;;;691.40;2150.40;;;;;;5070257;28;20032;-80
2021/05/25 07:48:52;;;;;;;10.70;6.65;;;691.40;2150.40;;;;;;5053509;28;20174;-81
2021/05/25 07:51:18;;;;;;;8.73;4.15;;;691.70;2150.40;;;;;;5054536;28;20357;-80
2021/05/25 07:53:45;;;;;;;7.32;3.53;;;691.70;2099.20;;;;;;5070118;28;20035;-82
2021/05/25 07:56:11;;;;;;;17.55;4.97;;;691.90;2073.60;;;;;;5070196;28;20056;-81
2021/05/25 07:58:37;;;;;;;15.48;4.90;;;691.90;2124.80;;;;;;5070134;28;20024;-81
2021/05/25 08:01:03;;;;;;;14.57;4.90;;;692.00;2099.20;;;;;;5070212;28;20060;-81
2021/05/25 08:03:30;;;;;;;10.63;3.95;;;692.10;2099.20;;;;;;5069884;28;20021;-81
2021/05/25 08:05:58;;;;;;;16.38;6.00;;;716.80;2099.20;;;;;;5070057;28;20082;-82
2021/05/25 08:08:24;;;;;;;19.25;8.48;;;716.80;2073.60;;;;;;5070149;28;20518;-82
2021/05/25 08:10:50;;;;;;;12.70;5.90;;;716.80;2073.60;;;;;;5054036;28;20032;-82
2021/05/25 08:13:16;;;;;;;14.23;4.78;;;716.90;2073.60;;;;;;5054584;28;20021;-81
2021/05/25 08:15:42;;;;;;;13.52;4.88;;;717.10;2048.00;;;;;;5070045;28;20032;-82
2021/05/25 08:20:53;;;;;;;14.90;5.45;;;717.30;2073.60;;;;;;5054180;28;20032;-79
2021/05/25 08:23:19;;;;;;;10.95;5.22;;;717.50;2048.00;;;;;;5052743;28;20368;-79
2021/05/25 08:25:44;;;;;;;19.45;6.13;;;717.50;1971.20;;;;;;5054353;28;20060;-81
2021/05/25 08:28:12;;;;;;;15.13;5.25;;;717.50;1996.80;;;;;;5054184;28;20021;-80
2021/05/25 08:30:41;;;;;;;10.55;5.60;;;717.70;2022.40;;;;;;5069516;28;20461;-80
2021/05/25 08:33:08;;;;;;;9.48;5.25;;;742.40;2022.40;;;;;;5069564;28;20025;-81
2021/05/25 08:35:35;;;;;;;11.10;5.15;;;742.40;1996.80;;;;;;5054079;28;20032;-81
2021/05/25 08:38:04;;;;;;;15.13;4.78;;;742.40;1971.20;;;;;;5068867;28;20090;-81
2021/05/25 08:40:31;;;;;;;14.35;4.43;;;742.50;1945.60;;;;;;5069395;28;20028;-81
2021/05/25 08:42:57;;;;;;;11.20;4.78;;;742.50;1945.60;;;;;;5069445;28;20452;-81
2021/05/25 08:45:24;;;;;;;9.80;4.65;;;742.90;1945.60;;;;;;5069174;28;20021;-81
2021/05/25 08:47:52;;;;;;;12.80;4.47;;;742.90;1920.00;;;;;;5054205;28;20020;-80
2021/05/25 08:50:21;;;;;;;15.85;5.13;;;743.00;1894.40;;;;;;5069226;28;20024;-80
2021/05/25 08:52:47;;;;;;;18.02;6.00;;;743.00;1894.40;;;;;;5053669;28;20506;-81
2021/05/25 08:55:14;;;;;;;11.85;5.40;;;743.10;1894.40;;;;;;5052559;28;20029;-82
2021/05/25 08:57:40;;;;;;;15.15;7.15;;;743.30;1894.40;;;;;;5069313;28;20039;-80
2021/05/25 09:00:08;;;;;;;15.27;6.03;;;768.00;1868.80;;;;;;5069022;28;20021;-81
2021/05/25 09:02:35;;;;;;;14.05;5.38;;;768.20;1868.80;;;;;;5053256;28;20453;-80
2021/05/25 09:05:13;;;;;;;13.18;5.00;;;743.10;1817.60;;;;;;5068581;28;20407;-79
2021/05/25 09:07:47;;;;;;;12.80;5.90;;;768.40;1817.60;;;;;;5069128;28;20045;-80
2021/05/25 09:10:22;;;;;;;16.35;6.20;;;768.40;1817.60;;;;;;5069106;28;20445;-78
2021/05/25 09:12:52;;;;;;;12.55;4.45;;;768.40;1843.20;;;;;;5051995;28;20037;-80
2021/05/25 09:15:52;;;;;;;9.32;4.60;;;768.50;1792.00;;;;;;5069055;28;20528;-79
2021/05/25 09:18:25;;;;;;;9.07;4.97;;;768.70;1792.00;;;;;;5052413;28;20544;-81
2021/05/25 09:20:55;;;;;;;13.50;7.40;;;768.90;1766.40;;;;;;5068874;28;20108;-80
2021/05/25 09:23:42;;;;;;;10.13;5.22;;;793.60;1817.60;;;;;;5068991;28;20021;-80
2021/05/25 09:26:15;;;;;;;18.73;5.60;;;793.60;1792.00;;;;;;5052183;28;20028;-80
2021/05/25 09:28:58;;;;;;;11.75;3.80;;;793.80;1792.00;;;;;;5069051;28;20032;-81
2021/05/25 09:31:43;;;;;;;9.23;3.88;;;793.90;1715.20;;;;;;5052088;28;20530;-79
2021/05/25 09:34:12;;;;;;;10.52;4.68;;;794.00;1715.20;;;;;;5053027;28;20025;-81
2021/05/25 09:37:00;;;;;;;12.75;4.65;;;794.00;1689.60;;;;;;5053360;28;20021;-81
2021/05/25 09:39:31;;;;;;;10.65;4.40;;;794.10;1689.60;;;;;;5068337;28;20490;-80
2021/05/25 09:42:03;;;;;;;9.65;3.78;;;794.20;1664.00;;;;;;5068702;28;20032;-79
2021/05/25 09:44:29;;;;;;;;;;;794.30;1689.60;;;;;;5053634;28;20471;-79
2021/05/25 09:46:58;;;;;;;14.18;5.15;;;794.50;1664.00;;;;;;5069193;28;19948;-79
2021/05/25 09:49:24;;;;;;;10.30;5.00;;;819.30;1664.00;;;;;;5068715;28;20028;-80
2021/05/25 09:52:03;;;;;;;9.57;4.43;;;819.30;1664.00;;;;;;5053513;28;20021;-81
2021/05/25 09:54:30;;;;;;;10.32;3.72;;;819.40;1664.00;;;;;;5053202;28;20017;-79
2021/05/25 09:57:02;;;;;;;13.40;5.15;;;819.60;1638.40;;;;;;5053286;28;20353;-80
2021/05/25 09:59:30;;;;;;;10.18;4.13;;;819.80;1638.40;;;;;;5053379;28;20017;-79
2021/05/25 10:01:56;;;;;;;14.57;4.93;;;819.80;1638.40;;;;;;5068387;28;20035;-80
2021/05/25 10:04:23;;;;;;;12.02;4.53;;;819.90;1612.80;;;;;;5068207;28;20020;-80
2021/05/25 10:06:49;;;;;;;17.20;5.20;;;820.10;1612.80;;;;;;5051783;28;20487;-79
2021/05/25 10:09:15;;;;;;;9.73;5.38;;;844.80;1612.80;;;;;;5068440;28;20021;-80
2021/05/25 10:11:43;;;;;;;8.65;4.30;;;844.90;1612.80;;;;;;5068600;28;20350;-78
2021/05/25 10:14:10;;;;;;;13.80;4.45;;;845.00;1612.80;;;;;;5068390;28;20021;-81
2021/05/25 10:16:39;;;;;;;12.82;3.80;;;845.20;1612.80;;;;;;5070322;28;20480;-79
2021/05/25 10:21:35;;;;;;;8.70;3.80;;;845.30;1561.60;;;;;;5056617;28;20048;-79
2021/05/25 10:24:02;;;;;;;13.90;4.25;;;845.40;1561.60;;;;;;5071794;28;20025;-79
2021/05/25 10:26:28;;;;;;;12.57;3.25;;;845.50;1510.40;;;;;;5071802;28;20021;-80
2021/05/25 10:28:55;;;;;;;12.38;3.67;;;845.60;1536.00;;;;;;5071905;28;20166;-80
2021/05/25 10:31:43;;;;;;;12.93;6.00;;;845.40;1510.40;;;;;;5071636;28;20032;-79
2021/05/25 10:34:14;;;;;;;8.90;3.28;;;845.60;1536.00;;;;;;5056624;28;20046;-80
2021/05/25 10:36:47;;;;;;;10.55;4.57;;;845.70;1536.00;;;;;;5071644;28;20449;-80
2021/05/25 10:39:32;;;;;;;13.77;4.18;;;870.50;1536.00;;;;;;5071740;28;20380;-80
2021/05/25 10:42:26;;;;;;;13.00;3.60;;;845.40;1536.00;;;;;;5055492;28;20037;-80
2021/05/25 10:45:10;;;;;;;17.40;7.18;;;845.30;1510.40;;;;;;5055137;28;20064;-82
2021/05/25 10:47:42;;;;;;;13.38;3.97;;;845.60;1536.00;;;;;;5056477;28;20425;-80
2021/05/25 10:50:25;;;;;;;12.82;4.82;;;845.20;1536.00;;;;;;5071508;28;20017;-79
2021/05/25 10:52:58;;;;;;;10.13;4.85;;;844.90;1561.60;;;;;;5071902;28;20021;-79
2021/05/25 10:55:44;;;;;;;16.10;5.60;;;844.80;1561.60;;;;;;5055390;28;20017;-80
2021/05/25 10:58:34;;;;;;;6.45;3.97;;;845.40;1536.00;;;;;;5055846;28;20047;-80
2021/05/25 11:01:03;;;;;;;11.25;4.60;;;845.70;1536.00;;;;;;5071183;28;20033;-82
2021/05/25 11:03:29;;;;;;;12.18;5.88;;;870.50;1510.40;;;;;;5055833;28;20021;-81
2021/05/25 11:06:00;;;;;;;13.18;5.18;;;870.70;1484.80;;;;;;5055751;28;20024;-81
2021/05/25 11:08:37;;;;;;;14.77;5.45;;;870.80;1459.20;;;;;;5070846;28;20028;-80
2021/05/25 11:11:08;;;;;;;14.63;5.72;;;870.90;1459.20;;;;;;5055487;28;20017;-81
2021/05/25 11:13:45;;;;;;;10.77;4.20;;;871.10;1459.20;;;;;;5055339;28;20048;-79
2021/05/25 11:16:32;;;;;;;9.18;4.03;;;871.10;1433.60;;;;;;5054273;28;20024;-81
2021/05/25 11:19:09;;;;;;;9.75;3.72;;;871.30;1408.00;;;;;;5070937;28;20461;-81
2021/05/25 11:24:31;;;;;;;15.70;3.85;;;870.50;1484.80;;;;;;5055330;28;20416;-82
2021/05/25 11:27:26;;;;;;;9.82;3.92;;;870.90;1459.20;;;;;;5053653;28;20115;-82
2021/05/25 11:30:02;;;;;;;14.82;5.47;;;871.20;1433.60;;;;;;5054261;28;20074;-81
2021/05/25 11:32:38;;;;;;;12.57;4.80;;;871.30;1433.60;;;;;;5070500;28;20021;-79
2021/05/25 11:35:09;;;;;;;11.18;4.53;;;896.30;1408.00;;;;;;5070612;28;20497;-80
2021/05/25 11:37:39;;;;;;;11.27;3.53;;;896.40;1408.00;;;;;;5070488;28;20456;-81
2021/05/25 11:40:14;;;;;;;14.13;5.00;;;896.60;1382.40;;;;;;5070235;28;20041;-81
2021/05/25 11:42:45;;;;;;;15.20;4.78;;;896.00;1433.60;;;;;;5055203;28;20032;-80
2021/05/25 11:45:12;;;;;;;13.65;4.05;;;896.10;1382.40;;;;;;5070571;28;20025;-82
2021/05/25 11:47:40;;;;;;;10.88;4.38;;;896.10;1382.40;;;;;;5055030;28;20029;-78
2021/05/25 11:50:07;;;;;;;13.57;4.57;;;896.10;1408.00;;;;;;5070264;28;20032;-80
2021/05/25 11:52:35;;;;;;;19.33;5.22;;;896.70;1382.40;;;;;;5055230;28;20025;-80
2021/05/25 11:55:04;;;;;;;14.93;3.53;;;896.30;1382.40;;;;;;5070367;28;20023;-81
2021/05/25 11:57:32;;;;;;;12.80;3.30;;;896.20;1382.40;;;;;;5053405;28;20063;-80
2021/05/25 12:00:35;;;;;;;12.75;3.25;;;896.50;1356.80;;;;;;5053381;28;20068;-80
2021/05/25 12:03:06;;;;;;;10.73;3.50;;;896.10;1382.40;;;;;;5053068;28;20076;-80
2021/05/25 12:05:33;;;;;;;15.85;4.18;;;896.00;1382.40;;;;;;5069964;28;20036;-81
2021/05/25 12:08:08;;;;;;;10.32;3.45;;;871.10;1382.40;;;;;;5054135;28;20400;-81
2021/05/25 12:10:36;;;;;;;17.67;4.47;;;896.00;1356.80;;;;;;5054267;28;20024;-81
2021/05/25 12:13:09;;;;;;;11.32;3.40;;;870.70;1408.00;;;;;;5069861;28;20048;-80
2021/05/25 12:15:53;;;;;;;8.93;2.70;;;870.70;1408.00;;;;;;5054229;28;20017;-81
2021/05/25 12:18:27;;;;;;;13.55;3.50;;;871.30;1382.40;;;;;;5069792;28;20403;-80
2021/05/25 12:20:55;;;;;;;12.93;3.13;;;896.30;1382.40;;;;;;5069646;28;20032;-81
2021/05/25 12:23:26;;;;;;;12.57;4.38;;;896.80;1356.80;;;;;;5069480;28;20025;-80